sensor_id;sensor_type;location;lat;lon;timestamp;pressure;altitude;pressure_sealevel;temperature;humidity
36304;BME280;22335;49.800;8.596;2024-01-06T00:00:54;99318.13;;;9.62;59.40
36304;BME280;22335;49.800;8.596;2024-01-06T00:07:37;99347.41;;;9.84;58.77
36304;BME280;22335;49.800;8.596;2024-01-06T00:14:20;99331.22;;;9.88;58.72
36304;BME280;22335;49.800;8.596;2024-01-06T00:21:05;99334.69;;;9.80;58.85
36304;BME280;22335;49.800;8.596;2024-01-06T00:27:49;99341.38;;;9.74;58.82
36304;BME280;22335;49.800;8.596;2024-01-06T00:34:32;99355.16;;;9.55;58.79
36304;BME280;22335;49.800;8.596;2024-01-06T00:41:17;99349.69;;;9.41;59.51
36304;BME280;22335;49.800;8.596;2024-01-06T00:48:00;99350.59;;;9.36;59.16
36304;BME280;22335;49.800;8.596;2024-01-06T00:54:44;99335.66;;;9.20;59.48
36304;BME280;22335;49.800;8.596;2024-01-06T01:01:29;99361.81;;;9.49;59.23
36304;BME280;22335;49.800;8.596;2024-01-06T01:08:13;99361.59;;;9.59;59.18
36304;BME280;22335;49.800;8.596;2024-01-06T01:14:56;99375.34;;;9.67;59.28
36304;BME280;22335;49.800;8.596;2024-01-06T01:21:41;99371.91;;;9.76;59.74
36304;BME280;22335;49.800;8.596;2024-01-06T01:28:25;99370.47;;;9.78;59.46
36304;BME280;22335;49.800;8.596;2024-01-06T01:35:10;99381.19;;;9.75;59.43
36304;BME280;22335;49.800;8.596;2024-01-06T01:41:54;99370.59;;;9.73;59.87
36304;BME280;22335;49.800;8.596;2024-01-06T01:48:38;99390.00;;;9.85;59.93
36304;BME280;22335;49.800;8.596;2024-01-06T01:55:22;99396.06;;;9.82;60.14
36304;BME280;22335;49.800;8.596;2024-01-06T02:02:07;99389.09;;;9.76;59.90
36304;BME280;22335;49.800;8.596;2024-01-06T02:08:51;99393.66;;;9.67;60.19
36304;BME280;22335;49.800;8.596;2024-01-06T02:15:34;99381.41;;;9.64;60.34
36304;BME280;22335;49.800;8.596;2024-01-06T02:22:19;99373.75;;;9.53;60.66
36304;BME280;22335;49.800;8.596;2024-01-06T02:29:03;99388.91;;;9.59;60.26
36304;BME280;22335;49.800;8.596;2024-01-06T02:35:46;99395.56;;;9.53;60.33
36304;BME280;22335;49.800;8.596;2024-01-06T02:42:31;99408.91;;;9.40;60.19
36304;BME280;22335;49.800;8.596;2024-01-06T02:49:15;99400.84;;;9.35;60.46
36304;BME280;22335;49.800;8.596;2024-01-06T02:55:58;99416.22;;;9.45;60.04
36304;BME280;22335;49.800;8.596;2024-01-06T03:02:44;99418.31;;;9.34;60.56
36304;BME280;22335;49.800;8.596;2024-01-06T03:09:27;99413.75;;;9.16;60.80
36304;BME280;22335;49.800;8.596;2024-01-06T03:16:11;99414.84;;;9.15;60.71
36304;BME280;22335;49.800;8.596;2024-01-06T03:22:56;99423.66;;;9.26;61.13
36304;BME280;22335;49.800;8.596;2024-01-06T03:29:40;99420.63;;;9.27;60.81
36304;BME280;22335;49.800;8.596;2024-01-06T03:36:23;99428.31;;;9.25;60.88
36304;BME280;22335;49.800;8.596;2024-01-06T03:43:08;99430.75;;;9.27;60.89
36304;BME280;22335;49.800;8.596;2024-01-06T04:04:54;99456.81;;;9.33;60.73
36304;BME280;22335;49.800;8.596;2024-01-06T04:11:38;99469.75;;;9.41;60.58
36304;BME280;22335;49.800;8.596;2024-01-06T04:18:21;99455.81;;;9.42;60.54
36304;BME280;22335;49.800;8.596;2024-01-06T04:25:07;99459.25;;;9.34;61.06
36304;BME280;22335;49.800;8.596;2024-01-06T04:31:50;99470.16;;;9.34;60.76
36304;BME280;22335;49.800;8.596;2024-01-06T04:38:34;99460.28;;;9.38;60.62
36304;BME280;22335;49.800;8.596;2024-01-06T04:45:19;99460.75;;;9.40;60.68
36304;BME280;22335;49.800;8.596;2024-01-06T04:52:05;99456.13;;;9.41;60.97
36304;BME280;22335;49.800;8.596;2024-01-06T04:58:48;99450.97;;;9.39;60.61
36304;BME280;22335;49.800;8.596;2024-01-06T05:05:33;99458.22;;;9.30;60.75
36304;BME280;22335;49.800;8.596;2024-01-06T05:12:17;99470.34;;;9.38;60.60
36304;BME280;22335;49.800;8.596;2024-01-06T05:19:00;99474.31;;;9.45;60.67
36304;BME280;22335;49.800;8.596;2024-01-06T05:25:45;99447.72;;;9.37;61.12
36304;BME280;22335;49.800;8.596;2024-01-06T05:32:29;99464.72;;;9.48;60.89
36304;BME280;22335;49.800;8.596;2024-01-06T05:39:12;99480.00;;;9.49;60.59
36304;BME280;22335;49.800;8.596;2024-01-06T05:45:57;99492.22;;;9.52;60.65
36304;BME280;22335;49.800;8.596;2024-01-06T05:52:41;99497.69;;;9.52;61.18
36304;BME280;22335;49.800;8.596;2024-01-06T05:59:25;99493.03;;;9.52;60.94
36304;BME280;22335;49.800;8.596;2024-01-06T06:06:10;99483.69;;;9.26;61.05
36304;BME280;22335;49.800;8.596;2024-01-06T06:12:53;99510.69;;;9.27;61.15
36304;BME280;22335;49.800;8.596;2024-01-06T06:19:37;99516.72;;;9.24;61.03
36304;BME280;22335;49.800;8.596;2024-01-06T06:26:22;99522.59;;;9.31;61.53
36304;BME280;22335;49.800;8.596;2024-01-06T06:33:05;99533.44;;;9.36;61.53
36304;BME280;22335;49.800;8.596;2024-01-06T06:39:50;99520.25;;;9.24;61.25
36304;BME280;22335;49.800;8.596;2024-01-06T06:46:34;99560.53;;;9.33;61.08
36304;BME280;22335;49.800;8.596;2024-01-06T06:53:18;99561.94;;;9.30;61.50
36304;BME280;22335;49.800;8.596;2024-01-06T07:00:02;99575.03;;;9.28;61.35
36304;BME280;22335;49.800;8.596;2024-01-06T07:06:48;99575.19;;;9.37;61.80
36304;BME280;22335;49.800;8.596;2024-01-06T07:13:31;99590.69;;;9.41;61.37
36304;BME280;22335;49.800;8.596;2024-01-06T07:20:15;99593.63;;;9.45;61.41
36304;BME280;22335;49.800;8.596;2024-01-06T07:27:00;99599.34;;;9.43;61.36
36304;BME280;22335;49.800;8.596;2024-01-06T07:33:44;99607.53;;;9.43;61.88
36304;BME280;22335;49.800;8.596;2024-01-06T07:40:28;99616.34;;;9.40;61.63
36304;BME280;22335;49.800;8.596;2024-01-06T07:47:17;99616.72;;;9.34;61.69
36304;BME280;22335;49.800;8.596;2024-01-06T07:54:01;99635.22;;;9.37;61.75
36304;BME280;22335;49.800;8.596;2024-01-06T08:00:44;99641.91;;;9.44;61.91
36304;BME280;22335;49.800;8.596;2024-01-06T08:07:29;99647.63;;;9.48;61.99
36304;BME280;22335;49.800;8.596;2024-01-06T08:14:13;99659.84;;;9.51;61.62
36304;BME280;22335;49.800;8.596;2024-01-06T08:20:58;99663.16;;;9.47;61.67
36304;BME280;22335;49.800;8.596;2024-01-06T08:27:43;99670.91;;;9.40;62.08
36304;BME280;22335;49.800;8.596;2024-01-06T08:34:26;99669.69;;;9.33;62.16
36304;BME280;22335;49.800;8.596;2024-01-06T08:41:11;99672.41;;;9.33;62.78
36304;BME280;22335;49.800;8.596;2024-01-06T08:47:56;99678.59;;;9.38;62.38
36304;BME280;22335;49.800;8.596;2024-01-06T08:54:40;99694.47;;;9.36;62.62
36304;BME280;22335;49.800;8.596;2024-01-06T09:01:23;99703.59;;;9.45;62.17
36304;BME280;22335;49.800;8.596;2024-01-06T09:08:08;99713.03;;;9.53;62.74
36304;BME280;22335;49.800;8.596;2024-01-06T09:14:52;99720.94;;;9.55;62.54
36304;BME280;22335;49.800;8.596;2024-01-06T09:21:35;99722.16;;;9.62;62.83
36304;BME280;22335;49.800;8.596;2024-01-06T09:28:20;99727.56;;;9.67;62.88
36304;BME280;22335;49.800;8.596;2024-01-06T09:35:04;99741.78;;;9.83;62.55
36304;BME280;22335;49.800;8.596;2024-01-06T09:41:48;99741.13;;;9.91;62.55
36304;BME280;22335;49.800;8.596;2024-01-06T09:48:35;99711.91;;;9.73;62.63
36304;BME280;22335;49.800;8.596;2024-01-06T09:55:24;99760.06;;;10.02;62.60
36304;BME280;22335;49.800;8.596;2024-01-06T10:02:09;99758.97;;;10.03;62.50
36304;BME280;22335;49.800;8.596;2024-01-06T10:08:55;99762.66;;;9.93;62.90
36304;BME280;22335;49.800;8.596;2024-01-06T10:15:38;99775.84;;;9.91;62.71
36304;BME280;22335;49.800;8.596;2024-01-06T10:22:22;99776.63;;;9.91;62.92
36304;BME280;22335;49.800;8.596;2024-01-06T10:29:07;99770.06;;;9.92;63.09
36304;BME280;22335;49.800;8.596;2024-01-06T10:35:50;99760.75;;;9.93;62.90
36304;BME280;22335;49.800;8.596;2024-01-06T10:42:36;99754.53;;;10.07;63.00
36304;BME280;22335;49.800;8.596;2024-01-06T10:49:22;99739.78;;;10.22;63.08
36304;BME280;22335;49.800;8.596;2024-01-06T10:56:07;99714.50;;;10.16;62.65
36304;BME280;22335;49.800;8.596;2024-01-06T11:02:53;99722.28;;;10.23;62.76
36304;BME280;22335;49.800;8.596;2024-01-06T11:09:39;99740.78;;;10.45;62.89
36304;BME280;22335;49.800;8.596;2024-01-06T11:16:34;99719.56;;;10.23;62.88
36304;BME280;22335;49.800;8.596;2024-01-06T11:23:19;99730.66;;;10.31;62.94
36304;BME280;22335;49.800;8.596;2024-01-06T11:30:05;99685.84;;;10.13;63.12
36304;BME280;22335;49.800;8.596;2024-01-06T11:36:49;99730.38;;;10.60;63.13
36304;BME280;22335;49.800;8.596;2024-01-06T11:43:34;99721.25;;;10.65;63.21
36304;BME280;22335;49.800;8.596;2024-01-06T11:50:20;99720.66;;;10.68;63.28
36304;BME280;22335;49.800;8.596;2024-01-06T11:57:05;99712.25;;;10.65;63.23
36304;BME280;22335;49.800;8.596;2024-01-06T12:03:53;99722.38;;;10.64;63.47
36304;BME280;22335;49.800;8.596;2024-01-06T12:10:39;99723.19;;;10.78;63.44
36304;BME280;22335;49.800;8.596;2024-01-06T12:17:29;99685.41;;;10.67;63.46
36304;BME280;22335;49.800;8.596;2024-01-06T12:24:15;99724.41;;;11.00;63.17
36304;BME280;22335;49.800;8.596;2024-01-06T12:31:08;99704.84;;;10.79;63.00
36304;BME280;22335;49.800;8.596;2024-01-06T12:37:53;99722.78;;;10.99;63.21
36304;BME280;22335;49.800;8.596;2024-01-06T12:44:37;99727.03;;;11.05;63.20
36304;BME280;22335;49.800;8.596;2024-01-06T12:51:22;99727.22;;;11.08;62.89
36304;BME280;22335;49.800;8.596;2024-01-06T12:58:06;99736.75;;;11.11;62.84
36304;BME280;22335;49.800;8.596;2024-01-06T13:04:49;99726.31;;;11.13;62.68
36304;BME280;22335;49.800;8.596;2024-01-06T13:11:35;99739.06;;;11.18;62.96
36304;BME280;22335;49.800;8.596;2024-01-06T13:18:18;99745.75;;;11.25;62.72
36304;BME280;22335;49.800;8.596;2024-01-06T13:25:02;99749.78;;;11.42;62.60
36304;BME280;22335;49.800;8.596;2024-01-06T13:31:50;99754.97;;;11.43;62.69
36304;BME280;22335;49.800;8.596;2024-01-06T13:38:34;99753.41;;;11.51;62.46
36304;BME280;22335;49.800;8.596;2024-01-06T13:45:17;99760.72;;;11.42;62.67
36304;BME280;22335;49.800;8.596;2024-01-06T13:52:03;99762.38;;;11.29;62.43
36304;BME280;22335;49.800;8.596;2024-01-06T13:58:49;99768.78;;;11.24;62.57
36304;BME280;22335;49.800;8.596;2024-01-06T14:05:33;99766.53;;;11.26;62.67
36304;BME280;22335;49.800;8.596;2024-01-06T14:12:19;99766.44;;;11.31;62.50
36304;BME280;22335;49.800;8.596;2024-01-06T14:19:02;99767.16;;;11.37;62.51
36304;BME280;22335;49.800;8.596;2024-01-06T14:25:46;99770.59;;;11.43;62.25
36304;BME280;22335;49.800;8.596;2024-01-06T14:32:30;99774.31;;;11.47;62.14
36304;BME280;22335;49.800;8.596;2024-01-06T14:39:14;99781.41;;;11.48;62.30
36304;BME280;22335;49.800;8.596;2024-01-06T14:46:00;99782.00;;;11.59;62.34
36304;BME280;22335;49.800;8.596;2024-01-06T14:52:45;99785.13;;;11.66;62.28
36304;BME280;22335;49.800;8.596;2024-01-06T14:59:29;99803.25;;;11.75;62.29
36304;BME280;22335;49.800;8.596;2024-01-06T15:06:13;99806.69;;;11.81;62.01
36304;BME280;22335;49.800;8.596;2024-01-06T15:13:00;99809.75;;;11.80;62.13
36304;BME280;22335;49.800;8.596;2024-01-06T15:19:45;99815.94;;;11.85;62.25
36304;BME280;22335;49.800;8.596;2024-01-06T15:26:28;99820.69;;;11.80;62.01
36304;BME280;22335;49.800;8.596;2024-01-06T15:33:13;99822.34;;;11.81;62.13
36304;BME280;22335;49.800;8.596;2024-01-06T15:39:57;99817.47;;;11.77;62.11
36304;BME280;22335;49.800;8.596;2024-01-06T15:46:41;99833.19;;;11.86;62.12
36304;BME280;22335;49.800;8.596;2024-01-06T15:53:26;99841.72;;;11.84;62.10
36304;BME280;22335;49.800;8.596;2024-01-06T16:00:11;99837.34;;;11.83;62.11
36304;BME280;22335;49.800;8.596;2024-01-06T16:06:57;99861.50;;;11.81;62.29
36304;BME280;22335;49.800;8.596;2024-01-06T16:13:42;99870.03;;;11.52;62.92
36304;BME280;22335;49.800;8.596;2024-01-06T16:20:25;99876.25;;;11.44;62.63
36304;BME280;22335;49.800;8.596;2024-01-06T16:27:08;99882.72;;;11.20;62.96
36304;BME280;22335;49.800;8.596;2024-01-06T16:33:54;99889.00;;;11.07;63.02
36304;BME280;22335;49.800;8.596;2024-01-06T16:40:37;99898.75;;;11.13;63.01
36304;BME280;22335;49.800;8.596;2024-01-06T16:47:20;99903.53;;;11.21;62.90
36304;BME280;22335;49.800;8.596;2024-01-06T16:54:05;99909.56;;;11.04;62.88
36304;BME280;22335;49.800;8.596;2024-01-06T17:00:49;99913.63;;;10.93;63.11
36304;BME280;22335;49.800;8.596;2024-01-06T17:07:33;99909.94;;;10.84;63.11
36304;BME280;22335;49.800;8.596;2024-01-06T17:14:18;99888.38;;;10.64;63.07
36304;BME280;22335;49.800;8.596;2024-01-06T17:21:02;99928.97;;;10.75;63.31
36304;BME280;22335;49.800;8.596;2024-01-06T17:27:46;99923.03;;;10.68;63.22
36304;BME280;22335;49.800;8.596;2024-01-06T17:34:30;99934.56;;;10.65;63.55
36304;BME280;22335;49.800;8.596;2024-01-06T17:41:14;99945.00;;;10.63;63.29
36304;BME280;22335;49.800;8.596;2024-01-06T17:47:57;99955.00;;;10.54;63.13
36304;BME280;22335;49.800;8.596;2024-01-06T17:54:42;99961.50;;;10.39;63.46
36304;BME280;22335;49.800;8.596;2024-01-06T18:01:26;99967.13;;;10.29;63.62
36304;BME280;22335;49.800;8.596;2024-01-06T18:08:09;99957.63;;;10.21;63.43
36304;BME280;22335;49.800;8.596;2024-01-06T18:14:55;99972.59;;;10.48;63.67
36304;BME280;22335;49.800;8.596;2024-01-06T18:21:38;99974.34;;;10.57;63.43
36304;BME280;22335;49.800;8.596;2024-01-06T18:28:21;99983.16;;;10.54;63.24
36304;BME280;22335;49.800;8.596;2024-01-06T18:35:07;99981.75;;;10.57;63.12
36304;BME280;22335;49.800;8.596;2024-01-06T18:41:51;99986.03;;;10.63;63.21
36304;BME280;22335;49.800;8.596;2024-01-06T18:48:36;99993.66;;;10.66;63.11
36304;BME280;22335;49.800;8.596;2024-01-06T18:55:21;99991.50;;;10.63;62.99
36304;BME280;22335;49.800;8.596;2024-01-06T19:02:04;99993.94;;;10.65;62.90
36304;BME280;22335;49.800;8.596;2024-01-06T19:08:49;100000.53;;;10.64;62.81
36304;BME280;22335;49.800;8.596;2024-01-06T19:15:34;99982.72;;;10.47;62.70
36304;BME280;22335;49.800;8.596;2024-01-06T19:22:20;100010.50;;;10.73;62.75
36304;BME280;22335;49.800;8.596;2024-01-06T19:29:04;100010.41;;;10.78;62.74
36304;BME280;22335;49.800;8.596;2024-01-06T19:35:49;100014.19;;;10.82;62.46
36304;BME280;22335;49.800;8.596;2024-01-06T19:42:35;99996.38;;;10.66;62.42
36304;BME280;22335;49.800;8.596;2024-01-06T19:49:19;100013.38;;;10.82;62.32
36304;BME280;22335;49.800;8.596;2024-01-06T19:56:05;100013.06;;;10.83;62.22
36304;BME280;22335;49.800;8.596;2024-01-06T20:02:48;100013.31;;;10.87;62.38
36304;BME280;22335;49.800;8.596;2024-01-06T20:09:32;100024.28;;;11.01;62.44
36304;BME280;22335;49.800;8.596;2024-01-06T20:16:17;100024.28;;;11.01;62.35
36304;BME280;22335;49.800;8.596;2024-01-06T20:23:00;100035.66;;;11.08;62.50
36304;BME280;22335;49.800;8.596;2024-01-06T20:29:44;100026.03;;;11.11;62.20
36304;BME280;22335;49.800;8.596;2024-01-06T20:36:31;99987.94;;;10.81;62.00
36304;BME280;22335;49.800;8.596;2024-01-06T20:43:14;100016.59;;;11.03;62.13
36304;BME280;22335;49.800;8.596;2024-01-06T20:49:58;100023.28;;;10.97;62.28
36304;BME280;22335;49.800;8.596;2024-01-06T20:56:43;100021.94;;;10.94;62.21
36304;BME280;22335;49.800;8.596;2024-01-06T21:03:26;100016.84;;;10.88;62.14
36304;BME280;22335;49.800;8.596;2024-01-06T21:10:10;99982.56;;;10.57;61.93
36304;BME280;22335;49.800;8.596;2024-01-06T21:16:55;100027.44;;;10.75;62.06
36304;BME280;22335;49.800;8.596;2024-01-06T21:23:38;100032.69;;;10.72;61.88
36304;BME280;22335;49.800;8.596;2024-01-06T21:30:24;100028.31;;;10.71;62.13
36304;BME280;22335;49.800;8.596;2024-01-06T21:37:09;100038.44;;;10.70;62.07
36304;BME280;22335;49.800;8.596;2024-01-06T21:43:53;100041.75;;;10.67;62.09
36304;BME280;22335;49.800;8.596;2024-01-06T21:50:36;100049.06;;;10.53;62.22
36304;BME280;22335;49.800;8.596;2024-01-06T21:57:21;100048.13;;;10.44;62.36
36304;BME280;22335;49.800;8.596;2024-01-06T22:04:05;100046.13;;;10.25;62.52
36304;BME280;22335;49.800;8.596;2024-01-06T22:10:48;100053.50;;;10.25;62.36
36304;BME280;22335;49.800;8.596;2024-01-06T22:17:33;100057.16;;;10.15;62.42
36304;BME280;22335;49.800;8.596;2024-01-06T22:24:16;100055.31;;;10.10;62.19
36304;BME280;22335;49.800;8.596;2024-01-06T22:31:03;100062.22;;;10.03;62.50
36304;BME280;22335;49.800;8.596;2024-01-06T22:37:49;100031.03;;;9.85;62.40
36304;BME280;22335;49.800;8.596;2024-01-06T22:44:33;100073.91;;;10.08;62.33
36304;BME280;22335;49.800;8.596;2024-01-06T22:51:16;100069.56;;;10.07;62.28
36304;BME280;22335;49.800;8.596;2024-01-06T22:58:01;100068.28;;;10.00;62.58
36304;BME280;22335;49.800;8.596;2024-01-06T23:04:46;100067.22;;;9.96;62.38
36304;BME280;22335;49.800;8.596;2024-01-06T23:11:30;100070.84;;;9.91;62.58
36304;BME280;22335;49.800;8.596;2024-01-06T23:18:15;100069.91;;;9.77;62.42
36304;BME280;22335;49.800;8.596;2024-01-06T23:24:58;100075.06;;;9.78;62.47
36304;BME280;22335;49.800;8.596;2024-01-06T23:31:42;100068.00;;;9.72;62.65
36304;BME280;22335;49.800;8.596;2024-01-06T23:38:27;100082.41;;;9.83;62.37
36304;BME280;22335;49.800;8.596;2024-01-06T23:45:10;100086.50;;;9.80;62.36
36304;BME280;22335;49.800;8.596;2024-01-06T23:51:54;100093.59;;;9.81;62.37
36304;BME280;22335;49.800;8.596;2024-01-06T23:58:39;100096.28;;;9.86;62.33
